createdAt,value
2023-04-17T00:01:39.056Z,1022.40
2023-04-17T00:03:53.848Z,1022.40
2023-04-17T00:06:11.692Z,1022.39
2023-04-17T00:08:27.271Z,1022.44
2023-04-17T00:10:41.904Z,1022.46
2023-04-17T00:12:59.974Z,1022.48
2023-04-17T00:15:17.477Z,1022.47
2023-04-17T00:17:28.638Z,1022.47
2023-04-17T00:19:46.748Z,1022.46
2023-04-17T00:22:05.689Z,1022.49
2023-04-17T00:24:17.465Z,1022.49
2023-04-17T00:26:35.535Z,1022.48
2023-04-17T00:28:50.223Z,1022.45
2023-04-17T00:31:07.017Z,1022.49
2023-04-17T00:33:21.356Z,1022.44
2023-04-17T00:35:49.494Z,1022.40
2023-04-17T00:38:06.479Z,1022.39
2023-04-17T00:40:18.422Z,1022.43
2023-04-17T00:42:32.995Z,1022.42
2023-04-17T00:45:01.721Z,1022.46
2023-04-17T00:47:16.808Z,1022.42
2023-04-17T00:49:29.908Z,1022.44
2023-04-17T00:51:46.897Z,1022.44
2023-04-17T00:54:00.114Z,1022.38
2023-04-17T00:56:15.661Z,1022.45
2023-04-17T00:58:30.250Z,1022.46
2023-04-17T01:00:45.872Z,1022.49
2023-04-17T01:02:59.734Z,1022.46
2023-04-17T01:05:15.048Z,1022.46
2023-04-17T01:07:31.518Z,1022.53
2023-04-17T01:09:48.730Z,1022.50
2023-04-17T01:12:06.777Z,1022.55
2023-04-17T01:14:22.424Z,1022.49
2023-04-17T01:16:40.551Z,1022.51
2023-04-17T01:18:59.490Z,1022.48
2023-04-17T01:21:16.688Z,1022.48
2023-04-17T01:23:35.668Z,1022.51
2023-04-17T01:25:54.239Z,1022.49
2023-04-17T01:28:06.410Z,1022.53
2023-04-17T01:30:26.976Z,1022.52
2023-04-17T01:32:42.702Z,1022.52
2023-04-17T01:34:58.164Z,1022.58
2023-04-17T01:37:13.884Z,1022.55
2023-04-17T01:39:31.883Z,1022.54
2023-04-17T01:41:47.464Z,1022.53
2023-04-17T01:44:06.475Z,1022.54
2023-04-17T01:46:23.753Z,1022.52
2023-04-17T01:48:41.727Z,1022.57
2023-04-17T01:50:58.166Z,1022.60
2023-04-17T01:53:19.033Z,1022.59
2023-04-17T01:55:30.982Z,1022.57
2023-04-17T01:57:46.580Z,1022.56
2023-04-17T02:00:03.253Z,1022.60
2023-04-17T02:02:22.375Z,1022.60
2023-04-17T02:04:37.052Z,1022.64
2023-04-17T02:06:55.001Z,1022.62
2023-04-17T02:09:09.864Z,1022.67
2023-04-17T02:11:30.745Z,1022.64
2023-04-17T02:13:43.862Z,1022.68
2023-04-17T02:15:59.485Z,1022.66
2023-04-17T02:18:18.433Z,1022.68
2023-04-17T02:20:35.615Z,1022.69
2023-04-17T02:22:53.749Z,1022.69
2023-04-17T02:25:09.243Z,1022.69
2023-04-17T02:27:22.746Z,1022.72
2023-04-17T02:29:38.242Z,1022.72
2023-04-17T02:31:55.368Z,1022.76
2023-04-17T02:34:11.036Z,1022.73
2023-04-17T02:36:29.968Z,1022.73
2023-04-17T02:38:47.231Z,1022.71
2023-04-17T02:41:02.773Z,1022.71
2023-04-17T02:43:20.844Z,1022.71
2023-04-17T02:45:36.505Z,1022.75
2023-04-17T02:47:53.115Z,1022.76
2023-04-17T02:50:06.761Z,1022.75
2023-04-17T02:52:22.387Z,1022.77
2023-04-17T02:54:38.942Z,1022.78
2023-04-17T02:56:54.559Z,1022.78
2023-04-17T02:59:14.032Z,1022.81
2023-04-17T03:01:28.400Z,1022.81
2023-04-17T03:03:45.791Z,1022.83
2023-04-17T03:06:04.334Z,1022.87
2023-04-17T03:08:22.381Z,1022.81
2023-04-17T03:10:39.992Z,1022.84
2023-04-17T03:12:57.276Z,1022.84
2023-04-17T03:15:12.796Z,1022.88
2023-04-17T03:17:32.024Z,1022.90
2023-04-17T03:19:50.261Z,1022.88
2023-04-17T03:22:07.358Z,1022.92
2023-04-17T03:24:27.310Z,1022.94
2023-04-17T03:26:44.519Z,1022.99
2023-04-17T03:29:02.599Z,1022.95
2023-04-17T03:31:23.885Z,1022.92
2023-04-17T03:33:39.636Z,1023.00
2023-04-17T03:35:59.360Z,1023.06
2023-04-17T03:38:19.313Z,1023.07
2023-04-17T03:40:34.016Z,1023.09
2023-04-17T03:42:49.627Z,1023.08
2023-04-17T03:45:06.219Z,1023.11
2023-04-17T03:47:22.798Z,1023.13
2023-04-17T03:49:39.299Z,1023.12
2023-04-17T03:51:53.919Z,1023.11
2023-04-17T03:54:12.090Z,1023.13
2023-04-17T03:56:30.110Z,1023.14
2023-04-17T03:58:45.704Z,1023.16
2023-04-17T04:01:03.774Z,1023.16
2023-04-17T04:03:22.042Z,1023.19
2023-04-17T04:05:40.027Z,1023.22
2023-04-17T04:07:58.114Z,1023.24
2023-04-17T04:10:13.701Z,1023.23
2023-04-17T04:12:31.764Z,1023.22
2023-04-17T04:14:49.834Z,1023.29
2023-04-17T04:17:07.975Z,1023.26
2023-04-17T04:19:24.512Z,1023.27
2023-04-17T04:21:39.072Z,1023.41
2023-04-17T04:23:58.048Z,1023.41
2023-04-17T04:26:14.253Z,1023.42
2023-04-17T04:28:33.756Z,1023.41
2023-04-17T04:30:47.420Z,1023.45
2023-04-17T04:33:02.057Z,1023.46
2023-04-17T04:35:20.974Z,1023.48
2023-04-17T04:37:38.417Z,1023.48
2023-04-17T04:39:56.275Z,1023.42
2023-04-17T04:42:11.882Z,1023.46
2023-04-17T04:44:27.472Z,1023.45
2023-04-17T04:46:43.168Z,1023.49
2023-04-17T04:49:02.078Z,1023.51
2023-04-17T04:51:19.338Z,1023.52
2023-04-17T04:53:37.359Z,1023.58
2023-04-17T04:55:56.327Z,1023.56
2023-04-17T04:58:13.524Z,1023.59
2023-04-17T05:00:32.514Z,1023.61
2023-04-17T05:02:49.957Z,1023.60
2023-04-17T05:05:07.827Z,1023.64
2023-04-17T05:07:25.946Z,1023.66
2023-04-17T05:09:40.519Z,1023.66
2023-04-17T05:11:58.574Z,1023.73
2023-04-17T05:14:17.730Z,1023.73
2023-04-17T05:16:33.365Z,1023.75
2023-04-17T05:18:48.940Z,1023.79
2023-04-17T05:21:07.951Z,1023.77
2023-04-17T05:23:26.057Z,1023.81
2023-04-17T05:25:44.186Z,1023.79
2023-04-17T05:27:59.831Z,1023.81
2023-04-17T05:30:21.385Z,1023.79
2023-04-17T05:32:41.994Z,1023.79
2023-04-17T05:35:00.054Z,1023.83
2023-04-17T05:37:18.150Z,1023.83
2023-04-17T05:39:33.720Z,1023.86
2023-04-17T05:41:51.847Z,1023.85
2023-04-17T05:44:09.934Z,1023.86
2023-04-17T05:46:28.015Z,1023.92
2023-04-17T05:48:49.467Z,1023.95
2023-04-17T05:51:06.647Z,1023.94
2023-04-17T05:53:28.206Z,1024.00
2023-04-17T05:55:45.387Z,1023.94
2023-04-17T05:58:10.540Z,1023.96
2023-04-17T05:59:04.386Z,1023.97
2023-04-17T06:01:18.998Z,1023.98
2023-04-17T06:03:38.190Z,1024.01
2023-04-17T06:05:55.344Z,1024.02
2023-04-17T06:08:14.160Z,1024.05
2023-04-17T06:10:28.886Z,1024.02
2023-04-17T06:12:47.887Z,1024.03
2023-04-17T06:15:08.940Z,1024.06
2023-04-17T06:17:25.714Z,1024.02
2023-04-17T06:19:43.698Z,1024.04
2023-04-17T06:21:58.356Z,1024.02
2023-04-17T06:24:12.915Z,1024.00
2023-04-17T06:26:31.263Z,1024.08
2023-04-17T06:28:48.815Z,1024.03
2023-04-17T06:31:05.111Z,1024.03
2023-04-17T06:33:24.618Z,1024.00
2023-04-17T06:35:42.033Z,1024.07
2023-04-17T06:37:53.276Z,1024.05
2023-04-17T06:40:11.356Z,1024.11
2023-04-17T06:42:30.319Z,1024.05
2023-04-17T06:44:44.974Z,1024.11
2023-04-17T06:47:02.916Z,1024.12
2023-04-17T06:49:16.826Z,1024.11
2023-04-17T06:51:34.888Z,1024.11
2023-04-17T06:53:52.914Z,1024.14
2023-04-17T06:56:11.000Z,1024.20
2023-04-17T06:58:29.072Z,1024.24
2023-04-17T07:00:47.175Z,1024.24
2023-04-17T07:03:02.930Z,1024.23
2023-04-17T07:05:21.714Z,1024.28
2023-04-17T07:07:35.394Z,1024.34
2023-04-17T07:09:56.033Z,1024.35
2023-04-17T07:12:11.630Z,1024.39
2023-04-17T07:14:27.210Z,1024.39
2023-04-17T07:16:45.886Z,1024.40
2023-04-17T07:19:05.753Z,1024.46
2023-04-17T07:21:21.436Z,1024.49
2023-04-17T07:23:40.388Z,1024.45
2023-04-17T07:25:55.142Z,1024.52
2023-04-17T07:28:13.200Z,1024.50
2023-04-17T07:30:31.274Z,1024.52
2023-04-17T07:32:46.945Z,1024.50
2023-04-17T07:35:05.932Z,1024.53
2023-04-17T07:37:22.449Z,1024.52
2023-04-17T07:39:39.654Z,1024.54
2023-04-17T07:41:57.683Z,1024.56
2023-04-17T07:44:15.754Z,1024.56
2023-04-17T07:46:31.448Z,1024.59
2023-04-17T07:48:49.619Z,1024.66
2023-04-17T07:51:07.521Z,1024.69
2023-04-17T07:53:26.508Z,1024.63
2023-04-17T07:55:40.088Z,1024.58
2023-04-17T07:57:55.086Z,1024.61
2023-04-17T08:00:09.371Z,1024.63
2023-04-17T08:02:30.430Z,1024.64
2023-04-17T08:04:50.658Z,1024.67
2023-04-17T08:07:11.203Z,1024.68
2023-04-17T08:09:29.354Z,1024.59
2023-04-17T08:11:56.834Z,1024.63
2023-04-17T08:14:06.843Z,1024.69
2023-04-17T08:16:25.604Z,1024.75
2023-04-17T08:18:43.322Z,1024.75
2023-04-17T08:21:04.093Z,1024.78
2023-04-17T08:23:22.552Z,1024.80
2023-04-17T08:24:23.004Z,1024.81
2023-04-17T08:26:40.874Z,1024.82
2023-04-17T08:28:58.866Z,1024.90
2023-04-17T08:31:15.246Z,1024.89
2023-04-17T08:33:30.759Z,1024.91
2023-04-17T08:35:51.483Z,1024.95
2023-04-17T08:38:11.023Z,1024.94
2023-04-17T08:40:31.672Z,1024.96
2023-04-17T08:42:50.657Z,1024.94
2023-04-17T08:45:11.692Z,1024.95
2023-04-17T08:47:31.897Z,1024.97
2023-04-17T08:49:47.824Z,1024.93
2023-04-17T08:52:08.621Z,1024.89
2023-04-17T08:54:23.960Z,1024.84
2023-04-17T08:56:44.809Z,1024.79
2023-04-17T08:59:02.768Z,1024.85
2023-04-17T09:01:23.378Z,1024.80
2023-04-17T09:03:45.591Z,1024.83
2023-04-17T09:06:02.218Z,1024.89
2023-04-17T09:08:18.719Z,1024.77
2023-04-17T09:10:36.738Z,1024.80
2023-04-17T09:12:57.268Z,1024.77
2023-04-17T09:15:15.212Z,1024.84
2023-04-17T09:17:31.150Z,1024.82
2023-04-17T09:19:51.671Z,1024.82
2023-04-17T09:22:09.819Z,1024.80
2023-04-17T09:24:27.685Z,1024.80
2023-04-17T09:26:45.944Z,1024.78
2023-04-17T09:29:02.396Z,1024.78
2023-04-17T09:31:23.146Z,1024.80
2023-04-17T09:33:38.120Z,1024.77
2023-04-17T09:35:54.295Z,1024.76
2023-04-17T09:38:12.266Z,1024.75
2023-04-17T09:40:28.450Z,1024.70
2023-04-17T09:42:47.062Z,1024.69
2023-04-17T09:45:05.161Z,1024.70
2023-04-17T09:47:26.023Z,1024.75
2023-04-17T09:49:43.594Z,1024.82
2023-04-17T09:52:01.834Z,1024.70
2023-04-17T09:54:19.952Z,1024.81
2023-04-17T09:56:38.150Z,1024.73
2023-04-17T09:58:58.727Z,1024.70
2023-04-17T10:01:19.327Z,1024.75
2023-04-17T10:03:37.139Z,1024.67
2023-04-17T10:05:51.974Z,1024.70
2023-04-17T10:08:08.000Z,1024.78
2023-04-17T10:10:25.482Z,1024.73
2023-04-17T10:12:41.113Z,1024.75
2023-04-17T10:15:02.190Z,1024.75
2023-04-17T10:17:23.572Z,1024.69
2023-04-17T10:19:42.219Z,1024.70
2023-04-17T10:22:02.859Z,1024.75
2023-04-17T10:24:23.210Z,1024.73
2023-04-17T10:26:41.405Z,1024.72
2023-04-17T10:28:59.921Z,1024.74
2023-04-17T10:31:17.579Z,1024.66
2023-04-17T10:33:35.565Z,1024.64
2023-04-17T10:35:53.582Z,1024.63
2023-04-17T10:38:14.728Z,1024.62
2023-04-17T10:40:29.415Z,1024.65
2023-04-17T10:42:48.350Z,1024.59
2023-04-17T10:45:02.968Z,1024.67
2023-04-17T10:47:16.808Z,1024.63
2023-04-17T10:49:37.639Z,1024.54
2023-04-17T10:51:52.822Z,1024.61
2023-04-17T10:54:08.513Z,1024.59
2023-04-17T10:56:24.237Z,1024.47
2023-04-17T10:58:42.249Z,1024.53
2023-04-17T11:01:00.343Z,1024.62
2023-04-17T11:03:18.446Z,1024.47
2023-04-17T11:05:34.138Z,1024.55
2023-04-17T11:07:48.886Z,1024.47
2023-04-17T11:10:09.069Z,1024.56
2023-04-17T11:12:30.077Z,1024.51
2023-04-17T11:14:50.707Z,1024.60
2023-04-17T11:17:08.998Z,1024.65
2023-04-17T11:18:08.347Z,1024.59
2023-04-17T11:20:27.004Z,1024.65
2023-04-17T11:22:45.022Z,1024.61
2023-04-17T11:25:02.969Z,1024.59
2023-04-17T11:27:21.227Z,1024.61
2023-04-17T11:29:39.283Z,1024.69
2023-04-17T11:31:57.353Z,1024.67
2023-04-17T11:34:15.549Z,1024.62
2023-04-17T11:36:33.686Z,1024.65
2023-04-17T11:38:52.205Z,1024.68
2023-04-17T11:41:12.303Z,1024.70
2023-04-17T11:43:32.800Z,1024.68
2023-04-17T11:45:48.386Z,1024.66
2023-04-17T11:48:06.489Z,1024.69
2023-04-17T11:50:24.270Z,1024.71
2023-04-17T11:52:39.709Z,1024.72
2023-04-17T11:55:00.816Z,1024.61
2023-04-17T11:57:14.932Z,1024.69
2023-04-17T11:59:35.736Z,1024.75
2023-04-17T12:01:54.063Z,1024.84
2023-04-17T12:04:12.880Z,1024.81
2023-04-17T12:06:26.442Z,1024.83
2023-04-17T12:08:44.751Z,1024.79
2023-04-17T12:11:05.122Z,1024.81
2023-04-17T12:13:21.524Z,1024.80
2023-04-17T12:15:39.640Z,1024.75
2023-04-17T12:17:55.493Z,1024.77
2023-04-17T12:20:13.774Z,1024.82
2023-04-17T12:22:31.113Z,1024.79
2023-04-17T12:24:50.521Z,1024.79
2023-04-17T12:27:08.371Z,1024.82
2023-04-17T12:29:36.754Z,1024.84
2023-04-17T12:31:44.627Z,1024.87
2023-04-17T12:34:00.149Z,1024.87
2023-04-17T12:36:18.009Z,1024.89
2023-04-17T12:38:36.052Z,1024.89
2023-04-17T12:40:51.956Z,1024.87
2023-04-17T12:43:15.189Z,1024.89
2023-04-17T13:20:17.887Z,1025.23
2023-04-17T13:22:24.375Z,1025.27
2023-04-17T13:24:41.722Z,1025.33
2023-04-17T13:26:59.817Z,1025.31
2023-04-17T13:29:20.361Z,1025.30
2023-04-17T13:31:39.008Z,1025.27
2023-04-17T13:33:58.892Z,1025.39
2023-04-17T13:36:13.559Z,1025.43
2023-04-17T13:38:31.653Z,1025.38
2023-04-17T13:40:52.286Z,1025.42
2023-04-17T13:43:11.360Z,1025.38
2023-04-17T13:45:29.416Z,1025.42
2023-04-17T13:47:47.545Z,1025.42
2023-04-17T13:50:06.539Z,1025.50
2023-04-17T13:52:24.189Z,1025.44
2023-04-17T13:54:41.838Z,1025.51
2023-04-17T13:56:57.215Z,1025.46
2023-04-17T13:59:14.636Z,1025.44
2023-04-17T14:01:33.430Z,1025.43
2023-04-17T14:03:50.792Z,1025.44
2023-04-17T14:06:08.078Z,1025.47
2023-04-17T14:08:24.269Z,1025.45
2023-04-17T14:10:43.256Z,1025.44
2023-04-17T14:13:00.410Z,1025.48
2023-04-17T14:15:16.882Z,1025.44
2023-04-17T14:17:34.132Z,1025.47
2023-04-17T14:19:53.092Z,1025.52
2023-04-17T14:22:10.244Z,1025.52
2023-04-17T14:24:28.331Z,1025.52
2023-04-17T14:26:46.456Z,1025.52
2023-04-17T14:29:04.616Z,1025.53
2023-04-17T14:31:19.095Z,1025.52
2023-04-17T14:33:38.721Z,1025.54
2023-04-17T14:35:56.812Z,1025.53
2023-04-17T14:38:12.365Z,1025.48
2023-04-17T14:40:28.030Z,1025.49
2023-04-17T14:42:54.213Z,1025.54
2023-04-17T14:45:04.173Z,1025.54
2023-04-17T14:47:22.352Z,1025.56
2023-04-17T14:49:38.732Z,1025.51
2023-04-17T14:51:55.915Z,1025.57
2023-04-17T14:54:15.612Z,1025.56
2023-04-17T14:56:35.576Z,1025.60
2023-04-17T14:58:49.234Z,1025.66
2023-04-17T15:01:08.187Z,1025.61
2023-04-17T15:03:26.327Z,1025.64
2023-04-17T15:05:40.977Z,1025.71
2023-04-17T15:07:59.047Z,1025.70
2023-04-17T15:10:14.637Z,1025.68
2023-04-17T15:12:31.151Z,1025.63
2023-04-17T15:14:43.301Z,1025.64
2023-04-17T15:17:01.473Z,1025.64
2023-04-17T15:19:16.994Z,1025.68
2023-04-17T15:21:35.228Z,1025.70
2023-04-17T15:23:50.675Z,1025.68
2023-04-17T15:26:09.852Z,1025.68
2023-04-17T15:28:24.341Z,1025.71
2023-04-17T15:30:40.024Z,1025.68
2023-04-17T15:32:55.548Z,1025.65
2023-04-17T15:35:09.116Z,1025.67
2023-04-17T15:37:27.315Z,1025.69
2023-04-17T15:39:46.553Z,1025.69
2023-04-17T15:42:04.456Z,1025.69
2023-04-17T15:44:22.668Z,1025.69
2023-04-17T15:46:38.344Z,1025.72
2023-04-17T15:49:21.637Z,1025.71
2023-04-17T15:51:17.874Z,1025.74
2023-04-17T15:53:32.508Z,1025.78
2023-04-17T15:55:48.132Z,1025.76
2023-04-17T15:58:04.680Z,1025.75
2023-04-17T16:00:20.329Z,1025.66
2023-04-17T16:02:35.943Z,1025.69
2023-04-17T16:04:51.436Z,1025.69
2023-04-17T16:07:09.520Z,1025.72
2023-04-17T16:09:29.148Z,1025.76
2023-04-17T16:11:46.105Z,1025.76
2023-04-17T16:13:59.798Z,1025.76
2023-04-17T16:16:15.403Z,1025.78
2023-04-17T16:18:30.953Z,1025.87
2023-04-17T16:20:49.050Z,1025.82
2023-04-17T16:23:08.142Z,1025.85
2023-04-17T16:25:25.194Z,1025.85
2023-04-17T16:27:41.312Z,1025.89
2023-04-17T16:29:58.878Z,1025.88
2023-04-17T16:32:17.243Z,1025.88
2023-04-17T16:34:35.271Z,1025.94
2023-04-17T16:36:50.852Z,1025.95
2023-04-17T16:39:07.423Z,1025.93
2023-04-17T16:41:25.487Z,1025.99
2023-04-17T16:43:44.139Z,1025.99
2023-04-17T16:46:14.328Z,1025.96
2023-04-17T16:48:19.845Z,1025.95
2023-04-17T16:50:38.721Z,1025.94
2023-04-17T16:52:52.450Z,1025.96
2023-04-17T16:55:10.522Z,1025.93
2023-04-17T16:57:28.638Z,1025.99
2023-04-17T16:59:46.689Z,1026.00
2023-04-17T17:02:02.814Z,1026.02
2023-04-17T17:04:20.432Z,1026.04
2023-04-17T17:06:35.975Z,1026.06
2023-04-17T17:08:55.231Z,1026.07
2023-04-17T17:11:09.612Z,1026.09
2023-04-17T17:13:28.206Z,1026.08
2023-04-17T17:15:46.804Z,1026.11
2023-04-17T17:18:05.395Z,1026.09
2023-04-17T17:20:20.512Z,1026.13
2023-04-17T17:22:38.562Z,1026.14
2023-04-17T17:24:56.640Z,1026.15
2023-04-17T17:27:14.728Z,1026.20
2023-04-17T17:29:30.696Z,1026.21
2023-04-17T17:31:48.329Z,1026.22
2023-04-17T17:34:22.656Z,1026.24
2023-04-17T17:36:23.611Z,1026.25
2023-04-17T17:38:39.171Z,1026.25
2023-04-17T17:41:01.433Z,1026.27
2023-04-17T18:18:20.167Z,1026.44
2023-04-17T18:20:22.649Z,1026.47
2023-04-17T18:22:38.308Z,1026.44
2023-04-17T18:24:56.355Z,1026.45
2023-04-17T18:27:11.968Z,1026.46
2023-04-17T18:29:25.549Z,1026.53
2023-04-17T18:31:39.140Z,1026.51
2023-04-17T18:33:57.228Z,1026.53
2023-04-17T18:36:16.671Z,1026.51
2023-04-17T18:38:29.882Z,1026.56
2023-04-17T18:40:46.087Z,1026.57
2023-04-17T18:43:06.016Z,1026.54
2023-04-17T19:46:15.147Z,1026.58
2023-04-17T20:08:00.190Z,1026.69
2023-04-17T20:10:12.487Z,1026.68
2023-04-17T20:12:27.566Z,1026.55
2023-04-17T20:14:42.074Z,1026.68
2023-04-17T20:16:56.824Z,1026.65
2023-04-17T20:19:13.459Z,1026.67
2023-04-17T20:21:32.416Z,1026.56
2023-04-17T20:23:47.016Z,1026.65
2023-04-17T20:26:03.541Z,1026.60
2023-04-17T20:28:18.197Z,1026.66
2023-04-17T20:30:34.680Z,1026.57
2023-04-17T20:32:49.471Z,1026.64
2023-04-17T20:35:03.938Z,1026.58
2023-04-17T20:37:23.707Z,1026.53
2023-04-17T20:39:36.534Z,1026.52
2023-04-17T20:41:52.295Z,1026.53
2023-04-17T20:44:10.598Z,1026.50
2023-04-17T20:46:25.259Z,1026.47
2023-04-17T20:48:43.315Z,1026.48
2023-04-17T20:51:02.379Z,1026.50
2023-04-17T20:53:18.027Z,1026.48
2023-04-17T20:55:36.067Z,1026.48
2023-04-17T20:57:54.171Z,1026.44
2023-04-17T21:00:08.689Z,1026.45
2023-04-17T21:02:26.833Z,1026.46
2023-04-17T21:04:44.430Z,1026.47
2023-04-17T21:07:00.475Z,1026.47
2023-04-17T21:09:14.119Z,1026.48
2023-04-17T21:11:33.655Z,1026.56
2023-04-17T21:13:50.261Z,1026.58
2023-04-17T21:16:05.970Z,1026.53
2023-04-17T21:18:24.864Z,1026.63
2023-04-17T21:20:39.569Z,1026.61
2023-04-17T21:22:57.693Z,1026.58
2023-04-17T21:25:16.779Z,1026.55
2023-04-17T21:27:38.365Z,1026.57
2023-04-17T21:29:53.021Z,1026.60
2023-04-17T21:32:12.042Z,1026.53
2023-04-17T21:34:29.772Z,1026.60
2023-04-17T21:36:47.270Z,1026.64
2023-04-17T21:39:05.359Z,1026.61
2023-04-17T21:41:23.451Z,1026.64
2023-04-17T21:43:41.526Z,1026.65
2023-04-17T21:46:00.559Z,1026.68
2023-04-17T21:48:15.230Z,1026.70
2023-04-17T21:50:34.192Z,1026.69
2023-04-17T21:52:53.901Z,1026.66
2023-04-17T21:55:11.954Z,1026.68
2023-04-17T21:57:33.576Z,1026.63
2023-04-17T21:59:52.529Z,1026.68
2023-04-17T22:02:09.773Z,1026.66
2023-04-17T22:04:27.848Z,1026.68
2023-04-17T22:06:46.419Z,1026.75
2023-04-17T22:09:04.049Z,1026.77
2023-04-17T22:11:22.096Z,1026.75
2023-04-17T22:13:40.185Z,1026.73
2023-04-17T22:15:58.573Z,1026.77
2023-04-17T22:18:16.407Z,1026.77
2023-04-17T22:20:31.972Z,1026.77
2023-04-17T22:22:51.008Z,1026.75
2023-04-17T22:25:04.753Z,1026.79
2023-04-17T22:27:20.219Z,1026.81
2023-04-17T22:29:35.849Z,1026.82
2023-04-17T22:31:51.957Z,1026.79
2023-04-17T22:34:09.537Z,1026.85
2023-04-17T22:36:28.515Z,1026.88
2023-04-17T22:38:43.716Z,1026.81
2023-04-17T22:41:01.477Z,1026.87
2023-04-17T22:43:21.895Z,1026.88
2023-04-17T22:45:42.465Z,1026.87
2023-04-17T22:47:58.082Z,1026.88
2023-04-17T22:50:16.182Z,1026.91
2023-04-17T22:52:34.251Z,1026.88
2023-04-17T22:54:49.804Z,1026.95
2023-04-17T22:57:07.914Z,1026.90
2023-04-17T22:59:23.481Z,1026.95
2023-04-17T23:01:41.665Z,1026.94
2023-04-17T23:03:59.669Z,1026.94
2023-04-17T23:06:17.741Z,1026.98
2023-04-17T23:08:39.242Z,1027.02
2023-04-17T23:10:57.500Z,1026.99
2023-04-17T23:13:17.331Z,1027.03
2023-04-17T23:15:35.446Z,1027.03
2023-04-17T23:17:51.995Z,1027.03
2023-04-17T23:20:07.558Z,1027.05
2023-04-17T23:22:23.272Z,1027.04
2023-04-17T23:24:42.292Z,1027.04
2023-04-17T23:27:00.300Z,1027.02
2023-04-17T23:29:18.363Z,1027.02
2023-04-17T23:31:39.271Z,1027.04
2023-04-17T23:33:53.679Z,1026.98
2023-04-17T23:36:14.768Z,1026.96
2023-04-17T23:38:34.879Z,1026.94
2023-04-17T23:40:50.414Z,1026.99
2023-04-17T23:43:08.566Z,1026.94
2023-04-17T23:45:29.665Z,1026.99
2023-04-17T23:47:47.901Z,1026.95
2023-04-17T23:50:06.746Z,1027.01
2023-04-17T23:52:26.543Z,1027.01
2023-04-17T23:54:42.918Z,1027.00
2023-04-17T23:57:00.110Z,1027.00
2023-04-17T23:59:19.580Z,1027.00
